Time;durP1;ratioP1;P1;durP2;ratioP2;P2;SDS_P1;SDS_P2;PMS_P1;PMS_P2;Temp;Humidity;BMP_temperature;BMP_pressure;BME280_temperature;BME280_humidity;BME280_pressure;Samples;Min_cycle;Max_cycle;Signal;HPM_P1;HPM_P2
2023/05/09 00:01:05;;;;;;;16.83;10.77;;;;;;;16.07;83.35;100071.44;5067344;28;20039;-73
2023/05/09 00:03:32;;;;;;;19.55;11.75;;;;;;;15.99;83.80;100064.63;5067224;28;20091;-73
2023/05/09 00:05:57;;;;;;;15.60;10.50;;;;;;;15.94;84.08;100067.47;5066883;28;20048;-73
2023/05/09 00:08:22;;;;;;;17.10;11.40;;;;;;;16.02;83.66;100056.94;5066406;28;20071;-73
2023/05/09 00:10:47;;;;;;;15.63;10.37;;;;;;;15.99;83.59;100047.31;5068472;28;20511;-73
2023/05/09 00:13:13;;;;;;;14.40;10.33;;;;;;;15.88;83.45;100052.16;5068050;28;20265;-73
2023/05/09 00:15:38;;;;;;;15.10;9.80;;;;;;;15.77;84.49;100045.94;5065559;28;21259;-73
2023/05/09 00:18:03;;;;;;;17.92;10.38;;;;;;;15.70;84.61;100046.28;5066330;28;20269;-73
2023/05/09 00:20:29;;;;;;;16.45;11.77;;;;;;;15.81;84.50;100040.66;5066114;28;20043;-74
2023/05/09 00:22:54;;;;;;;18.48;11.98;;;;;;;15.82;84.27;100036.81;5067644;28;20044;-72
2023/05/09 00:25:19;;;;;;;16.73;11.07;;;;;;;15.76;84.00;100039.63;5067114;28;20040;-73
2023/05/09 00:27:44;;;;;;;16.02;10.68;;;;;;;15.71;84.57;100030.63;5067806;28;20257;-73
2023/05/09 00:30:10;;;;;;;20.17;10.77;;;;;;;15.79;84.39;100034.66;5067874;28;20443;-73
2023/05/09 00:32:35;;;;;;;20.10;8.98;;;;;;;15.78;84.10;100035.78;5067177;28;20250;-73
2023/05/09 00:35:01;;;;;;;15.18;9.73;;;;;;;15.86;83.59;100040.63;5066998;28;20044;-73
2023/05/09 00:37:29;;;;;;;18.70;11.05;;;;;;;15.74;83.82;100039.09;5067926;28;20043;-73
2023/05/09 00:39:54;;;;;;;15.05;10.55;;;;;;;15.85;83.76;100025.22;5067787;28;20036;-73
2023/05/09 00:42:20;;;;;;;18.17;9.43;;;;;;;15.87;82.97;100034.81;5067256;28;20056;-73
2023/05/09 00:44:45;;;;;;;20.77;13.32;;;;;;;15.98;82.93;100023.69;5066688;28;20044;-73
2023/05/09 00:47:10;;;;;;;14.70;10.57;;;;;;;15.95;82.88;100014.09;5067169;28;20036;-73
2023/05/09 00:49:36;;;;;;;15.20;10.05;;;;;;;15.92;82.76;100017.44;5067322;28;20775;-73
2023/05/09 00:52:03;;;;;;;16.20;9.95;;;;;;;15.75;82.90;100010.50;5067653;28;20027;-73
2023/05/09 00:54:28;;;;;;;16.55;9.30;;;;;;;15.75;83.22;100005.00;5066721;28;20595;-73
2023/05/09 00:56:54;;;;;;;15.65;9.55;;;;;;;15.66;83.39;100001.28;5066980;28;20171;-72
2023/05/09 00:59:19;;;;;;;15.65;10.30;;;;;;;15.71;83.68;99997.63;5067428;28;20036;-73
2023/05/09 01:01:45;;;;;;;19.27;11.52;;;;;;;15.73;83.40;99988.00;5067947;28;20036;-74
2023/05/09 01:04:12;;;;;;;17.42;10.77;;;;;;;15.62;83.10;99986.50;5066805;28;20543;-73
2023/05/09 01:07:05;;;;;;;16.63;10.18;;;;;;;15.61;83.71;99984.84;5066230;28;20498;-73
2023/05/09 01:09:55;;;;;;;16.65;9.77;;;;;;;15.69;82.79;99983.38;5066713;28;20112;-73
2023/05/09 01:12:54;;;;;;;15.43;10.07;;;;;;;15.54;83.39;99976.94;5065307;28;20033;-73
2023/05/09 01:15:33;;;;;;;17.40;10.18;;;;;;;15.51;83.11;99966.56;5066277;28;20401;-73
2023/05/09 01:18:05;;;;;;;18.38;10.07;;;;;;;15.55;83.84;99972.28;5065243;28;20025;-73
2023/05/09 01:20:48;;;;;;;18.90;11.27;;;;;;;15.46;83.95;99967.44;5066133;28;20040;-73
2023/05/09 01:23:52;;;;;;;17.13;11.13;;;;;;;15.46;83.99;99969.38;5066572;28;20028;-73
2023/05/09 01:26:44;;;;;;;19.92;12.20;;;;;;;15.46;84.29;99963.88;5066516;28;20127;-73
2023/05/09 01:29:47;;;;;;;19.00;12.60;;;;;;;15.39;84.39;99964.22;5066966;28;20032;-73
2023/05/09 01:32:16;;;;;;;25.60;10.38;;;;;;;15.44;84.36;99955.91;5066483;28;20090;-73
2023/05/09 01:34:43;;;;;;;17.20;11.48;;;;;;;15.38;84.89;99963.41;5064252;28;20052;-73
2023/05/09 01:37:12;;;;;;;17.10;11.70;;;;;;;15.46;84.36;99956.44;5064801;28;20182;-73
2023/05/09 01:39:40;;;;;;;20.42;11.15;;;;;;;15.43;84.65;99954.28;5066747;28;20036;-73
2023/05/09 01:42:08;;;;;;;17.77;11.63;;;;;;;15.40;84.78;99952.13;5066427;28;20185;-73
2023/05/09 01:44:37;;;;;;;17.83;12.52;;;;;;;15.46;84.81;99953.69;5065448;28;20031;-72
2023/05/09 01:47:06;;;;;;;19.27;11.27;;;;;;;15.45;84.42;99956.75;5065863;28;20493;-73
2023/05/09 01:49:34;;;;;;;18.17;10.27;;;;;;;15.46;84.98;99956.44;5066333;28;20539;-73
2023/05/09 01:52:04;;;;;;;17.48;11.30;;;;;;;15.47;84.86;99960.84;5066038;28;20172;-74
2023/05/09 01:54:31;;;;;;;19.95;12.95;;;;;;;15.49;84.93;99955.03;5065549;28;21260;-73
2023/05/09 01:56:58;;;;;;;20.55;12.32;;;;;;;15.54;84.61;99959.66;5066230;28;20028;-73
2023/05/09 01:59:25;;;;;;;21.67;12.75;;;;;;;15.59;84.17;99962.34;5065475;28;20119;-72
2023/05/09 02:01:53;;;;;;;21.52;11.85;;;;;;;15.57;84.10;99957.13;5065871;28;20032;-73
2023/05/09 02:04:20;;;;;;;17.45;10.77;;;;;;;15.59;83.91;99949.41;5065732;28;20032;-73
2023/05/09 02:06:51;;;;;;;20.55;12.82;;;;;;;15.58;84.36;99944.22;5066060;28;20109;-73
2023/05/09 02:09:20;;;;;;;18.13;11.60;;;;;;;15.50;84.49;99931.94;5065873;28;20590;-73
2023/05/09 02:11:45;;;;;;;21.42;11.90;;;;;;;15.44;84.69;99933.13;5065755;28;20043;-73
2023/05/09 02:14:11;;;;;;;19.58;12.77;;;;;;;15.42;85.11;99930.66;5065173;28;20040;-73
2023/05/09 02:16:38;;;;;;;21.75;12.48;;;;;;;15.51;84.88;99934.41;5065145;28;20032;-73
2023/05/09 02:19:04;;;;;;;21.17;13.07;;;;;;;15.42;84.94;99933.41;5065597;28;20036;-73
2023/05/09 02:21:29;;;;;;;23.23;13.25;;;;;;;15.38;85.04;99944.16;5064665;28;20175;-73
2023/05/09 02:23:55;;;;;;;20.95;13.88;;;;;;;15.35;85.96;99935.69;5064905;28;20116;-73
2023/05/09 02:26:21;;;;;;;20.73;13.75;;;;;;;15.46;85.41;99942.69;5065201;28;20466;-73
2023/05/09 02:28:47;;;;;;;22.98;13.38;;;;;;;15.48;85.02;99934.97;5065160;28;20033;-73
2023/05/09 02:31:15;;;;;;;21.27;13.27;;;;;;;15.54;84.94;99937.69;5065760;28;20020;-73
2023/05/09 02:33:42;;;;;;;28.15;14.25;;;;;;;15.59;84.62;99934.84;5065385;28;20644;-73
2023/05/09 02:36:08;;;;;;;18.35;11.43;;;;;;;15.59;84.91;99940.34;5065304;28;20042;-73
2023/05/09 02:38:34;;;;;;;18.95;12.60;;;;;;;15.63;84.28;99935.91;5065187;28;20674;-73
2023/05/09 02:41:00;;;;;;;20.95;12.88;;;;;;;15.63;84.23;99935.91;5064705;28;20090;-73
2023/05/09 02:43:25;;;;;;;20.58;13.93;;;;;;;15.63;84.32;99946.91;5063417;28;20066;-73
2023/05/09 02:45:50;;;;;;;22.10;14.40;;;;;;;15.69;84.03;99933.91;5064749;28;20643;-73
2023/05/09 02:48:15;;;;;;;21.70;14.40;;;;;;;15.73;83.94;99941.28;5065001;28;20265;-73
2023/05/09 02:50:42;;;;;;;19.00;13.27;;;;;;;15.76;83.89;99940.66;5065145;28;20249;-73
2023/05/09 02:53:07;;;;;;;21.75;13.80;;;;;;;15.66;84.02;99935.34;5065386;28;20120;-73
2023/05/09 02:55:33;;;;;;;19.40;12.98;;;;;;;15.62;84.20;99932.34;5064627;28;20036;-73
2023/05/09 02:57:58;;;;;;;20.55;13.25;;;;;;;15.69;84.20;99928.41;5065300;28;20036;-73
2023/05/09 03:00:24;;;;;;;18.73;12.82;;;;;;;15.64;84.46;99932.06;5064504;28;20093;-73
2023/05/09 03:02:50;;;;;;;20.35;13.00;;;;;;;15.70;84.35;99930.84;5065219;28;20427;-73
2023/05/09 03:05:16;;;;;;;22.58;13.07;;;;;;;15.76;84.34;99929.66;5064291;28;20040;-73
2023/05/09 03:07:42;;;;;;;27.60;14.57;;;;;;;15.83;83.96;99928.50;5065239;28;20082;-73
2023/05/09 03:10:10;;;;;;;23.08;14.60;;;;;;;15.85;83.99;99927.09;5065389;28;20032;-73
2023/05/09 03:12:37;;;;;;;21.42;13.43;;;;;;;15.79;83.87;99927.44;5063596;28;20056;-73
2023/05/09 03:15:03;;;;;;;22.50;13.00;;;;;;;15.81;84.05;99920.56;5064638;28;20149;-73
2023/05/09 03:17:28;;;;;;;29.92;13.88;;;;;;;15.86;83.37;99914.16;5064135;28;21294;-74
2023/05/09 03:19:53;;;;;;;22.40;13.90;;;;;;;15.88;83.84;99917.44;5064408;28;20060;-73
2023/05/09 03:22:18;;;;;;;24.43;15.27;;;;;;;15.87;83.57;99918.53;5064657;28;20039;-73
2023/05/09 03:24:44;;;;;;;25.90;14.43;;;;;;;15.88;83.72;99906.44;5064882;28;20266;-73
2023/05/09 03:27:09;;;;;;;22.88;13.88;;;;;;;15.80;84.16;99899.69;5065034;28;20264;-73
2023/05/09 03:29:34;;;;;;;20.87;13.13;;;;;;;15.88;83.88;99907.25;5064987;28;20033;-73
2023/05/09 03:32:00;;;;;;;28.38;15.98;;;;;;;15.86;83.90;99905.91;5066794;28;20733;-73
2023/05/09 03:34:25;;;;;;;25.13;16.13;;;;;;;15.84;84.13;99908.97;5066654;28;20595;-73
2023/05/09 03:36:50;;;;;;;24.35;17.30;;;;;;;15.90;84.19;99906.13;5068282;28;20311;-73
2023/05/09 03:39:15;;;;;;;20.75;14.25;;;;;;;15.95;83.49;99906.06;5069136;28;20032;-73
2023/05/09 03:41:42;;;;;;;25.80;14.97;;;;;;;15.92;83.99;99902.00;5068388;28;20040;-73
2023/05/09 03:44:07;;;;;;;24.67;15.43;;;;;;;15.83;84.21;99909.25;5067492;28;20830;-73
2023/05/09 03:46:33;;;;;;;26.40;14.43;;;;;;;15.88;83.47;99904.50;5068315;28;20028;-73
2023/05/09 03:48:58;;;;;;;24.98;15.00;;;;;;;15.83;84.38;99901.00;5068441;28;20025;-73
2023/05/09 03:51:23;;;;;;;21.47;14.17;;;;;;;15.86;84.35;99901.22;5068600;28;20393;-73
2023/05/09 03:53:49;;;;;;;21.45;13.85;;;;;;;15.83;84.57;99898.25;5067919;28;20257;-73
2023/05/09 03:56:14;;;;;;;20.67;12.48;;;;;;;15.81;84.87;99908.72;5067950;28;20033;-73
2023/05/09 03:58:39;;;;;;;21.92;13.23;;;;;;;15.72;85.25;99900.34;5068563;28;20179;-73
2023/05/09 04:01:05;;;;;;;21.40;13.97;;;;;;;15.76;84.94;99896.69;5067753;28;20031;-73
2023/05/09 04:03:31;;;;;;;19.73;12.88;;;;;;;15.81;84.69;99893.06;5068002;28;20269;-73
2023/05/09 04:05:56;;;;;;;22.15;13.57;;;;;;;15.73;85.09;99896.47;5067655;28;20040;-73
2023/05/09 04:08:22;;;;;;;32.55;15.93;;;;;;;15.74;85.29;99901.66;5067791;28;20562;-73
2023/05/09 04:10:49;;;;;;;21.38;13.02;;;;;;;15.62;85.43;99896.59;5068028;28;20048;-73
2023/05/09 04:13:15;;;;;;;21.90;15.13;;;;;;;15.71;85.66;99888.53;5067344;28;20043;-73
2023/05/09 04:15:40;;;;;;;28.95;17.02;;;;;;;15.75;85.63;99892.31;5067843;28;20115;-73
2023/05/09 04:18:06;;;;;;;22.65;13.48;;;;;;;15.86;84.94;99881.97;5068381;28;20064;-73
2023/05/09 04:20:31;;;;;;;24.77;15.57;;;;;;;15.82;84.85;99882.88;5067593;28;20116;-73
2023/05/09 04:22:57;;;;;;;23.98;14.43;;;;;;;15.84;85.29;99881.50;5067418;28;20205;-73
2023/05/09 04:25:23;;;;;;;21.30;13.35;;;;;;;15.88;85.29;99882.50;5067254;28;20496;-73
2023/05/09 04:27:48;;;;;;;20.67;14.20;;;;;;;15.89;84.73;99875.06;5066252;28;20029;-72
2023/05/09 04:30:14;;;;;;;30.38;15.38;;;;;;;15.90;85.19;99879.47;5067468;28;20383;-72
2023/05/09 04:32:39;;;;;;;23.13;14.60;;;;;;;15.92;85.04;99871.75;5067979;28;20481;-73
2023/05/09 04:35:06;;;;;;;24.13;14.77;;;;;;;15.96;85.29;99869.22;5067306;28;20036;-73
2023/05/09 04:37:32;;;;;;;22.70;14.18;;;;;;;15.96;85.04;99870.03;5067219;28;20277;-73
2023/05/09 04:39:57;;;;;;;22.88;15.18;;;;;;;15.97;85.02;99865.34;5068025;28;20124;-73
2023/05/09 04:42:22;;;;;;;21.80;14.00;;;;;;;15.99;84.75;99863.09;5066255;28;21143;-73
2023/05/09 04:44:48;;;;;;;25.27;16.20;;;;;;;16.04;84.65;99860.31;5066813;28;20823;-73
2023/05/09 04:47:13;;;;;;;22.02;14.30;;;;;;;16.02;84.64;99858.97;5067391;28;20401;-73
2023/05/09 04:49:39;;;;;;;24.48;13.35;;;;;;;16.07;84.75;99861.63;5067199;28;20032;-73
2023/05/09 04:52:05;;;;;;;22.70;13.98;;;;;;;16.03;84.67;99849.63;5066903;28;20033;-73
2023/05/09 04:54:30;;;;;;;25.55;15.85;;;;;;;16.05;84.59;99852.91;5066306;28;20043;-78
2023/05/09 04:56:55;;;;;;;24.02;14.77;;;;;;;15.98;84.82;99848.56;5067173;28;20029;-73
2023/05/09 04:59:21;;;;;;;23.58;14.88;;;;;;;15.97;85.31;99848.84;5067452;28;20167;-73
2023/05/09 05:01:46;;;;;;;21.80;13.57;;;;;;;15.89;85.64;99844.84;5066988;28;20032;-73
2023/05/09 05:04:11;;;;;;;23.95;15.45;;;;;;;15.91;85.64;99847.28;5066654;28;20313;-73
2023/05/09 05:06:36;;;;;;;24.37;13.67;;;;;;;15.90;85.73;99835.50;5066940;28;20117;-73
2023/05/09 05:09:02;;;;;;;20.63;13.00;;;;;;;15.94;85.67;99842.03;5066323;28;20266;-73
2023/05/09 05:11:27;;;;;;;25.42;15.38;;;;;;;15.95;85.73;99837.31;5066658;28;20033;-73
2023/05/09 05:13:52;;;;;;;22.23;14.70;;;;;;;16.02;85.60;99837.81;5065004;28;20113;-73
2023/05/09 05:16:18;;;;;;;21.70;13.83;;;;;;;16.02;85.43;99831.47;5066627;28;20265;-73
2023/05/09 05:18:43;;;;;;;23.73;15.60;;;;;;;16.04;85.48;99829.25;5066851;28;20350;-73
2023/05/09 05:21:08;;;;;;;32.43;17.60;;;;;;;16.04;85.70;99826.50;5066384;28;20291;-72
2023/05/09 05:23:34;;;;;;;23.15;15.13;;;;;;;15.96;85.87;99817.81;5066689;28;20281;-73
2023/05/09 05:25:59;;;;;;;30.73;15.38;;;;;;;15.96;86.15;99816.97;5066108;28;20075;-73
2023/05/09 05:28:24;;;;;;;20.88;13.43;;;;;;;15.92;86.31;99822.25;5066236;28;20032;-73
2023/05/09 05:30:49;;;;;;;22.77;14.23;;;;;;;15.97;86.15;99824.91;5066938;28;20128;-73
2023/05/09 05:33:15;;;;;;;25.27;14.83;;;;;;;15.98;86.29;99826.56;5066096;28;20245;-73
2023/05/09 05:35:40;;;;;;;26.50;16.07;;;;;;;16.07;85.78;99828.63;5066018;28;20269;-73
2023/05/09 05:38:05;;;;;;;19.92;13.50;;;;;;;16.04;85.84;99821.00;5066496;28;20332;-73
2023/05/09 05:40:30;;;;;;;21.07;13.97;;;;;;;15.98;86.20;99826.56;5064973;28;20135;-74
2023/05/09 05:42:56;;;;;;;21.60;13.87;;;;;;;15.98;86.21;99821.06;5065606;28;20277;-75
2023/05/09 05:45:21;;;;;;;23.33;15.27;;;;;;;15.96;86.19;99817.81;5063611;28;20943;-75
2023/05/09 05:47:46;;;;;;;22.77;15.57;;;;;;;16.05;86.26;99814.41;5065764;28;20044;-74
2023/05/09 05:50:12;;;;;;;28.90;14.00;;;;;;;16.08;86.06;99809.09;5065083;28;20392;-74
2023/05/09 05:52:38;;;;;;;23.25;14.07;;;;;;;16.07;86.36;99812.13;5065181;28;20245;-75
2023/05/09 05:55:07;;;;;;;23.67;15.30;;;;;;;16.14;86.03;99814.50;5064277;28;20047;-76
2023/05/09 05:57:34;;;;;;;26.13;14.40;;;;;;;16.21;85.85;99813.00;5063255;28;20524;-75
2023/05/09 05:59:59;;;;;;;26.85;15.20;;;;;;;16.25;85.60;99818.69;5064920;28;20165;-75
2023/05/09 06:02:24;;;;;;;20.65;12.82;;;;;;;16.30;85.56;99826.06;5064852;28;20024;-73
2023/05/09 06:04:50;;;;;;;23.98;14.25;;;;;;;16.36;85.20;99822.09;5064115;28;20054;-73
2023/05/09 06:07:15;;;;;;;23.10;13.33;;;;;;;16.42;84.99;99817.31;5064918;28;20775;-74
2023/05/09 06:09:40;;;;;;;27.50;15.50;;;;;;;16.43;85.01;99814.25;5065582;28;20025;-73
2023/05/09 06:12:06;;;;;;;19.47;13.50;;;;;;;16.56;84.82;99814.59;5065272;28;20064;-74
2023/05/09 06:14:31;;;;;;;24.83;14.50;;;;;;;16.57;84.81;99802.47;5065193;28;20786;-75
2023/05/09 06:17:00;;;;;;;20.52;13.55;;;;;;;16.59;84.93;99811.25;5065794;28;20043;-75
2023/05/09 06:19:25;;;;;;;23.30;14.90;;;;;;;16.54;85.05;99797.56;5066064;28;20040;-75
2023/05/09 06:21:50;;;;;;;23.50;13.23;;;;;;;16.59;85.16;99793.91;5066047;28;20106;-74
2023/05/09 06:24:16;;;;;;;28.02;14.98;;;;;;;16.57;85.30;99797.78;5065359;28;20072;-75
2023/05/09 06:26:41;;;;;;;20.13;13.27;;;;;;;16.72;85.07;99797.78;5066156;28;20111;-75
2023/05/09 06:29:06;;;;;;;21.30;14.57;;;;;;;16.74;84.65;99790.03;5066069;28;20749;-74
2023/05/09 06:31:36;;;;;;;22.92;12.93;;;;;;;16.77;84.70;99787.50;5065647;28;20515;-74
2023/05/09 06:34:02;;;;;;;21.48;13.10;;;;;;;16.83;84.40;99788.19;5065000;28;20089;-74
2023/05/09 06:36:27;;;;;;;23.30;13.50;;;;;;;16.86;83.97;99781.28;5065794;28;20751;-73
2023/05/09 06:38:52;;;;;;;23.57;12.97;;;;;;;16.84;84.32;99767.78;5065520;28;20040;-73
2023/05/09 06:41:17;;;;;;;20.50;12.57;;;;;;;16.84;84.32;99767.78;5065717;28;20162;-73
2023/05/09 06:43:43;;;;;;;19.43;12.77;;;;;;;16.88;84.44;99762.50;5065696;28;20025;-72
2023/05/09 06:46:08;;;;;;;19.98;12.75;;;;;;;16.91;84.38;99770.13;5065321;28;20547;-73
2023/05/09 06:48:33;;;;;;;18.40;12.23;;;;;;;16.92;84.50;99769.03;5064624;28;20592;-74
2023/05/09 06:50:58;;;;;;;21.40;13.83;;;;;;;16.88;85.13;99768.00;5065426;28;20276;-74
2023/05/09 06:53:24;;;;;;;20.00;13.43;;;;;;;16.92;84.82;99758.81;5064881;28;20269;-74
2023/05/09 06:55:49;;;;;;;20.37;12.17;;;;;;;16.99;84.54;99750.16;5064935;28;20261;-73
2023/05/09 06:58:14;;;;;;;16.88;11.57;;;;;;;17.00;84.52;99742.72;5065141;28;20066;-73
2023/05/09 07:00:40;;;;;;;16.25;11.13;;;;;;;16.98;84.64;99747.69;5065703;28;20115;-73
2023/05/09 07:03:08;;;;;;;23.60;13.57;;;;;;;16.90;84.99;99755.56;5065566;28;20238;-73
2023/05/09 07:05:33;;;;;;;20.77;14.20;;;;;;;16.96;85.12;99741.69;5064581;28;20253;-73
2023/05/09 07:07:58;;;;;;;24.52;14.20;;;;;;;16.96;84.83;99747.19;5065450;28;20490;-73
2023/05/09 07:10:24;;;;;;;19.85;12.55;;;;;;;16.97;84.76;99741.38;5062929;28;20032;-73
2023/05/09 07:12:49;;;;;;;22.13;13.57;;;;;;;16.97;84.73;99737.81;5064570;28;20067;-72
2023/05/09 07:15:15;;;;;;;20.67;12.25;;;;;;;16.99;84.85;99728.13;5064581;28;20137;-73
2023/05/09 07:17:40;;;;;;;17.15;11.65;;;;;;;17.10;84.54;99723.19;5065165;28;20040;-73
2023/05/09 07:20:06;;;;;;;19.93;12.90;;;;;;;17.08;84.71;99711.69;5065143;28;20542;-73
2023/05/09 07:22:31;;;;;;;25.23;13.95;;;;;;;17.15;84.58;99714.84;5065099;28;20245;-73
2023/05/09 07:24:56;;;;;;;20.35;11.27;;;;;;;17.26;84.41;99712.69;5064408;28;20040;-73
2023/05/09 07:27:22;;;;;;;19.08;10.77;;;;;;;17.24;84.34;99714.09;5065097;28;20041;-73
2023/05/09 07:29:50;;;;;;;20.67;11.13;;;;;;;17.30;84.43;99712.88;5064774;28;20032;-73
2023/05/09 07:32:15;;;;;;;18.92;11.88;;;;;;;17.25;84.30;99707.47;5065008;28;20336;-73
2023/05/09 07:34:41;;;;;;;16.58;11.60;;;;;;;17.30;84.19;99712.88;5064493;28;20123;-74
2023/05/09 07:37:06;;;;;;;17.73;10.32;;;;;;;17.15;84.10;99701.06;5064261;28;20109;-74
2023/05/09 07:39:31;;;;;;;18.73;11.83;;;;;;;17.02;84.43;99701.91;5064775;28;20132;-73
2023/05/09 07:41:56;;;;;;;24.10;11.17;;;;;;;17.11;84.42;99704.72;5064740;28;20048;-72
2023/05/09 07:44:22;;;;;;;16.97;11.17;;;;;;;17.17;84.30;99706.25;5063952;28;20672;-73
2023/05/09 07:46:47;;;;;;;25.95;11.57;;;;;;;17.22;84.28;99700.66;5064207;28;20264;-72
2023/05/09 07:49:13;;;;;;;16.50;10.63;;;;;;;17.32;84.13;99698.78;5064573;28;20036;-74
2023/05/09 07:51:38;;;;;;;15.13;9.70;;;;;;;17.43;83.62;99689.13;5064155;28;20054;-74
2023/05/09 07:54:03;;;;;;;20.05;9.95;;;;;;;17.39;83.40;99688.94;5063920;28;20066;-74
2023/05/09 07:56:28;;;;;;;15.27;9.83;;;;;;;17.36;82.82;99684.06;5063985;28;20071;-74
2023/05/09 07:58:54;;;;;;;14.15;10.27;;;;;;;17.48;82.79;99680.75;5065080;28;20310;-81
2023/05/09 09:10:48;;;;;;;10.75;5.82;;;;;;;17.73;77.38;99612.31;5037473;28;20397;-81
2023/05/09 09:13:15;;;;;;;10.57;6.10;;;;;;;17.83;76.79;99602.94;5038820;28;20493;-82
2023/05/09 09:15:42;;;;;;;12.80;6.05;;;;;;;17.95;76.15;99598.75;5037914;28;20038;-86
2023/05/09 09:18:11;;;;;;;11.20;6.18;;;;;;;18.23;75.15;99589.44;5040110;28;20035;-86
2023/05/09 09:20:56;;;;;;;9.90;5.20;;;;;;;18.53;74.11;99590.47;5039589;28;20418;-89
2023/05/09 09:23:24;;;;;;;8.43;5.00;;;;;;;18.75;73.68;99585.16;5039926;28;20040;-88
2023/05/09 09:25:56;;;;;;;9.18;5.35;;;;;;;18.88;71.45;99578.63;5039465;28;20106;-87
2023/05/09 09:28:22;;;;;;;9.18;6.15;;;;;;;18.95;70.94;99574.56;5039458;28;20060;-88
2023/05/09 09:30:47;;;;;;;8.48;4.70;;;;;;;18.89;70.81;99573.94;5038620;28;20463;-79
2023/05/09 09:33:20;;;;;;;10.70;6.10;;;;;;;18.75;71.03;99569.38;5039245;28;20033;-88
2023/05/09 09:35:50;;;;;;;9.38;5.78;;;;;;;18.79;70.43;99564.81;5039272;28;20086;-86
2023/05/09 09:38:18;;;;;;;7.55;5.40;;;;;;;18.94;70.37;99567.41;5039063;28;20045;-72
2023/05/09 10:13:00;;;;;;;6.78;3.78;;;;;;;19.45;65.14;99522.63;5038262;28;20983;-74
2023/05/09 10:15:27;;;;;;;6.22;3.88;;;;;;;19.59;63.42;99516.88;5038256;28;20061;-74
2023/05/09 10:17:55;;;;;;;7.63;3.35;;;;;;;19.92;63.72;99512.66;5038519;28;20410;-74
2023/05/09 10:20:21;;;;;;;7.22;4.15;;;;;;;20.15;62.32;99513.19;5038588;28;20025;-74
2023/05/09 10:22:49;;;;;;;7.13;2.85;;;;;;;20.33;60.35;99507.53;5038418;28;20560;-74
2023/05/09 10:25:26;;;;;;;6.53;3.28;;;;;;;20.53;58.92;99513.38;5038207;28;20048;-74
2023/05/09 10:27:54;;;;;;;9.50;3.25;;;;;;;20.55;58.38;99505.56;5038533;28;20468;-75
2023/05/09 10:30:30;;;;;;;5.88;3.28;;;;;;;20.71;58.94;99507.69;5038603;28;20033;-75
2023/05/09 10:33:12;;;;;;;6.00;3.20;;;;;;;20.95;58.91;99497.88;5038478;28;20159;-75
2023/05/09 10:35:46;;;;;;;5.15;3.08;;;;;;;20.93;59.42;99497.41;5037822;28;20044;-74
2023/05/09 10:38:12;;;;;;;6.13;2.88;;;;;;;21.02;58.79;99495.34;5038051;28;20092;-74
2023/05/09 10:40:39;;;;;;;6.00;2.90;;;;;;;21.21;59.13;99485.72;5037771;28;20029;-74
2023/05/09 10:43:06;;;;;;;6.90;3.38;;;;;;;21.26;58.64;99482.69;5038835;28;20040;-75
2023/05/09 10:45:32;;;;;;;6.00;3.65;;;;;;;21.26;58.96;99474.38;5037449;28;20179;-75
2023/05/09 10:47:58;;;;;;;8.35;3.92;;;;;;;21.31;58.76;99468.63;5038570;28;20029;-75
2023/05/09 10:50:24;;;;;;;8.02;3.47;;;;;;;21.54;58.07;99473.69;5037656;28;20588;-75
2023/05/09 10:53:06;;;;;;;5.88;3.22;;;;;;;21.39;56.34;99477.97;5036742;28;20637;-76
2023/05/09 10:55:59;;;;;;;7.40;3.08;;;;;;;21.31;56.81;99473.34;5037703;28;20037;-73
2023/05/09 10:58:28;;;;;;;8.27;3.40;;;;;;;21.26;56.97;99471.59;5037889;28;20124;-75
2023/05/09 11:00:56;;;;;;;5.75;2.90;;;;;;;21.29;57.17;99459.03;5038151;28;20072;-71
2023/05/09 11:03:23;;;;;;;5.18;3.70;;;;;;;21.37;57.75;99457.31;5037704;28;20384;-72
2023/05/09 11:05:52;;;;;;;7.30;3.33;;;;;;;21.40;57.54;99454.63;5037430;28;20120;-73
2023/05/09 11:08:28;;;;;;;8.10;3.35;;;;;;;21.28;57.23;99449.91;5037975;28;20463;-72
2023/05/09 11:10:55;;;;;;;4.85;2.60;;;;;;;21.25;57.79;99441.47;5037628;28;20152;-72
2023/05/09 11:13:23;;;;;;;5.88;3.05;;;;;;;21.34;58.13;99442.97;5037528;28;20025;-73
2023/05/09 11:15:57;;;;;;;7.13;3.92;;;;;;;21.41;58.39;99438.81;5037454;28;20034;-72
2023/05/09 11:18:23;;;;;;;7.72;3.00;;;;;;;21.66;58.10;99438.81;5037846;28;20037;-74
2023/05/09 11:20:48;;;;;;;4.68;2.38;;;;;;;21.81;56.55;99438.09;5037848;28;20379;-73
2023/05/09 11:23:24;;;;;;;4.23;2.90;;;;;;;21.56;54.94;99435.34;5030962;28;20510;-73
2023/05/09 11:25:50;;;;;;;7.30;2.38;;;;;;;21.43;54.97;99430.97;5024381;28;20278;-73
2023/05/09 11:28:36;;;;;;;5.82;3.22;;;;;;;21.33;54.80;99432.25;5024321;28;20041;-72
2023/05/09 11:31:15;;;;;;;3.95;2.55;;;;;;;21.22;54.84;99429.94;5024977;28;20441;-72
2023/05/09 11:33:43;;;;;;;5.97;2.15;;;;;;;21.25;54.33;99430.38;5024628;28;20124;-73
2023/05/09 11:36:30;;;;;;;10.93;3.30;;;;;;;21.14;54.34;99422.53;5024027;28;20037;-74
2023/05/09 11:39:07;;;;;;;5.57;2.97;;;;;;;21.08;54.96;99423.91;5024895;28;20038;-72
2023/05/09 11:41:39;;;;;;;4.47;2.28;;;;;;;21.24;54.41;99412.94;5024430;28;20036;-76
2023/05/09 11:44:13;;;;;;;4.50;2.88;;;;;;;21.31;55.12;99412.38;5024094;28;20057;-72
2023/05/09 11:46:38;;;;;;;;;;;;;;;21.25;54.90;99413.75;5024433;28;20410;-74
2023/05/09 11:49:06;;;;;;;12.20;3.80;;;;;;;21.17;55.47;99409.94;5024285;28;19947;-74
2023/05/09 11:51:35;;;;;;;4.75;2.70;;;;;;;21.34;54.42;99389.50;5023968;28;20055;-74
2023/05/09 11:54:00;;;;;;;3.95;2.33;;;;;;;21.50;54.75;99395.13;5023735;28;20110;-74
2023/05/09 11:56:26;;;;;;;3.15;1.60;;;;;;;21.50;53.75;99386.03;5023933;28;20120;-73
2023/05/09 11:58:51;;;;;;;5.70;2.95;;;;;;;21.22;54.50;99382.00;5024046;28;20037;-74
2023/05/09 12:01:17;;;;;;;5.53;2.78;;;;;;;21.14;55.50;99380.13;5024002;28;20133;-74
2023/05/09 12:03:43;;;;;;;7.18;3.00;;;;;;;21.01;55.42;99380.16;5023880;28;20120;-74
2023/05/09 12:06:13;;;;;;;7.18;2.25;;;;;;;20.95;55.34;99384.28;5023145;28;20790;-74
2023/05/09 12:08:39;;;;;;;5.28;2.55;;;;;;;20.86;55.64;99374.09;5023978;28;20037;-74
2023/05/09 12:11:08;;;;;;;5.03;3.40;;;;;;;20.72;56.00;99370.84;5023548;28;20057;-73
2023/05/09 12:13:34;;;;;;;5.82;2.40;;;;;;;20.63;56.72;99374.53;5023553;28;20029;-74
2023/05/09 12:16:00;;;;;;;6.25;2.58;;;;;;;20.54;57.50;99371.06;5023075;28;20093;-73
2023/05/09 12:18:26;;;;;;;4.40;2.22;;;;;;;20.62;57.09;99361.03;5023293;28;21239;-73
2023/05/09 12:20:51;;;;;;;3.80;2.13;;;;;;;20.77;57.10;99362.31;5023067;28;20041;-74
2023/05/09 12:23:17;;;;;;;4.32;2.22;;;;;;;20.98;56.64;99358.66;5023313;28;20259;-73
2023/05/09 12:25:47;;;;;;;5.43;2.60;;;;;;;21.09;56.05;99351.50;5022917;28;20044;-74
2023/05/09 12:28:13;;;;;;;6.45;2.80;;;;;;;21.26;55.99;99338.56;5023456;28;20033;-73
2023/05/09 12:30:39;;;;;;;5.28;2.58;;;;;;;21.31;55.27;99335.56;5021597;28;20037;-73
2023/05/09 12:33:05;;;;;;;4.75;2.72;;;;;;;21.36;55.79;99342.81;5023118;28;20033;-71
2023/05/09 12:35:31;;;;;;;5.28;3.35;;;;;;;21.21;55.91;99331.28;5021135;28;20037;-72
2023/05/09 12:37:59;;;;;;;9.05;2.72;;;;;;;20.85;55.40;99328.16;5023506;28;20037;-70
2023/05/09 12:40:24;;;;;;;4.28;2.00;;;;;;;20.83;55.91;99330.47;5022780;28;20029;-71
2023/05/09 12:42:53;;;;;;;4.38;2.40;;;;;;;21.04;55.48;99328.75;5022961;28;20037;-72
2023/05/09 12:45:18;;;;;;;6.47;3.53;;;;;;;21.11;55.73;99315.94;5022289;28;20103;-71
2023/05/09 12:47:44;;;;;;;6.90;3.55;;;;;;;21.06;56.31;99326.47;5022716;28;20061;-71
2023/05/09 12:50:13;;;;;;;6.70;3.30;;;;;;;21.11;56.32;99318.72;5022751;28;20030;-71
2023/05/09 12:52:41;;;;;;;8.02;2.70;;;;;;;21.21;56.83;99316.66;5022525;28;20040;-71
2023/05/09 12:55:08;;;;;;;6.05;2.83;;;;;;;21.29;56.54;99303.81;5022141;28;20043;-72
2023/05/09 12:57:34;;;;;;;6.32;2.90;;;;;;;21.36;56.23;99309.56;5022283;28;20484;-72
2023/05/09 13:00:01;;;;;;;5.78;3.40;;;;;;;21.49;56.49;99302.03;5022908;28;20163;-72
2023/05/09 13:02:27;;;;;;;5.20;2.90;;;;;;;21.42;56.08;99299.84;5022563;28;20025;-72
2023/05/09 13:05:09;;;;;;;5.20;2.88;;;;;;;21.49;55.26;99290.94;5022277;28;20049;-73